Time;durP1;ratioP1;P1;durP2;ratioP2;P2;SDS_P1;SDS_P2;PMS_P1;PMS_P2;Temp;Humidity;BMP_temperature;BMP_pressure;BME280_temperature;BME280_humidity;BME280_pressure;Samples;Min_cycle;Max_cycle;Signal;HPM_P1;HPM_P2
2022/06/02 00:01:30;;;;;;;6.87;4.73;;;10.00;99.90;;;;;;5046167;28;20648;-42
2022/06/02 00:04:03;;;;;;;5.37;4.87;;;9.90;99.90;;;;;;5043838;28;20734;-41
2022/06/02 00:06:46;;;;;;;5.43;4.40;;;9.90;99.90;;;;;;5039897;28;20234;-47
2022/06/02 00:09:34;;;;;;;14.63;6.30;;;9.90;99.90;;;;;;5051352;28;20222;-42
2022/06/02 00:12:07;;;;;;;6.17;5.47;;;9.90;99.90;;;;;;5050124;28;20200;-42
2022/06/02 00:14:42;;;;;;;6.53;5.17;;;9.90;99.90;;;;;;5040582;28;20202;-46
2022/06/02 00:17:22;;;;;;;6.60;4.73;;;9.80;99.90;;;;;;5043800;28;20285;-43
2022/06/02 00:19:55;;;;;;;5.23;4.83;;;9.80;99.90;;;;;;5056935;28;20222;-45
2022/06/02 00:22:29;;;;;;;4.90;4.50;;;9.70;99.90;;;;;;5060029;28;20206;-42
2022/06/02 00:25:05;;;;;;;6.73;5.77;;;9.70;99.90;;;;;;5045647;28;20891;-45
2022/06/02 00:27:41;;;;;;;5.57;5.07;;;9.60;99.90;;;;;;5044837;28;20202;-44
2022/06/02 00:30:23;;;;;;;7.20;5.50;;;9.60;99.90;;;;;;5053697;28;20215;-42
2022/06/02 00:32:59;;;;;;;6.57;4.93;;;9.50;99.90;;;;;;5043416;28;20203;-42
2022/06/02 00:35:34;;;;;;;6.90;5.80;;;9.50;99.90;;;;;;5039322;28;20198;-46
2022/06/02 00:38:06;;;;;;;6.20;5.60;;;9.50;99.90;;;;;;5043602;28;20247;-44
2022/06/02 00:40:35;;;;;;;6.63;5.90;;;9.60;99.90;;;;;;5029870;28;20214;-44
2022/06/02 00:43:19;;;;;;;6.87;5.93;;;9.60;99.90;;;;;;5054533;28;20203;-43
2022/06/02 00:45:50;;;;;;;6.87;6.30;;;9.50;99.90;;;;;;5042467;28;20195;-40
2022/06/02 00:48:26;;;;;;;6.87;6.27;;;9.50;99.90;;;;;;5041517;28;20223;-43
2022/06/02 00:51:01;;;;;;;7.87;7.03;;;9.40;99.90;;;;;;5057256;28;20209;-45
2022/06/02 00:53:42;;;;;;;6.73;6.13;;;9.40;99.90;;;;;;5058274;28;20190;-46
2022/06/02 00:59:25;;;;;;;6.70;6.20;;;9.30;99.90;;;;;;5057757;28;20278;-42
2022/06/02 01:01:52;;;;;;;6.83;6.20;;;9.30;99.90;;;;;;5049992;28;20209;-41
2022/06/02 01:04:20;;;;;;;8.33;7.17;;;9.20;99.90;;;;;;5042890;28;20226;-42
2022/06/02 01:07:04;;;;;;;7.33;6.63;;;9.20;99.90;;;;;;5046367;28;20207;-43
2022/06/02 01:09:45;;;;;;;8.47;6.50;;;9.20;99.90;;;;;;5043094;28;20223;-39
2022/06/02 01:12:41;;;;;;;7.97;7.23;;;9.20;99.90;;;;;;5035492;28;20203;-44
2022/06/02 01:15:19;;;;;;;8.13;7.27;;;9.20;99.90;;;;;;5055329;28;20207;-43
2022/06/02 01:18:04;;;;;;;8.63;7.83;;;9.20;99.90;;;;;;5045235;28;20210;-41
2022/06/02 01:20:49;;;;;;;10.70;7.87;;;9.20;99.90;;;;;;5049583;28;20852;-42
2022/06/02 01:23:48;;;;;;;9.43;7.23;;;9.20;99.90;;;;;;5050849;28;20234;-43
2022/06/02 01:26:33;;;;;;;8.80;7.20;;;9.20;99.90;;;;;;5052824;28;20198;-45
2022/06/02 01:29:14;;;;;;;8.17;6.50;;;9.10;99.90;;;;;;5056657;28;20249;-41
2022/06/02 01:31:50;;;;;;;7.97;7.30;;;9.10;99.90;;;;;;5057469;28;20196;-40
2022/06/02 01:34:32;;;;;;;7.90;7.10;;;9.10;99.90;;;;;;5057969;28;20655;-46
2022/06/02 01:37:08;;;;;;;14.17;7.53;;;9.10;99.90;;;;;;5065927;28;20593;-41
2022/06/02 01:39:42;;;;;;;7.60;6.90;;;;;;;;;;5062223;28;20995;-43
2022/06/02 01:42:21;;;;;;;8.27;7.50;;;9.10;99.90;;;;;;5046464;28;20563;-40
2022/06/02 01:44:58;;;;;;;9.80;7.80;;;9.00;99.90;;;;;;5057189;28;20710;-40
2022/06/02 01:47:33;;;;;;;8.00;7.30;;;9.00;99.90;;;;;;5042857;28;20571;-41
2022/06/02 01:50:13;;;;;;;8.30;7.00;;;9.00;99.90;;;;;;5046539;28;20313;-41
2022/06/02 01:52:51;;;;;;;7.50;6.80;;;9.00;99.90;;;;;;5043997;28;20928;-41
2022/06/02 01:55:36;;;;;;;8.13;7.27;;;9.00;99.90;;;;;;5043863;28;20226;-43
2022/06/02 01:58:17;;;;;;;8.20;6.73;;;8.90;99.90;;;;;;5044210;28;20206;-41
2022/06/02 02:00:47;;;;;;;7.50;6.60;;;8.90;99.90;;;;;;5049898;28;20431;-41
2022/06/02 02:03:26;;;;;;;6.97;6.30;;;8.90;99.90;;;;;;5044399;28;20231;-44
2022/06/02 02:06:05;;;;;;;8.03;7.30;;;8.80;99.90;;;;;;5046039;28;20218;-41
2022/06/02 02:08:54;;;;;;;8.40;6.90;;;8.90;99.90;;;;;;5042252;28;20245;-41
2022/06/02 02:11:41;;;;;;;8.67;6.93;;;8.90;99.90;;;;;;5058451;28;20593;-40
2022/06/02 02:14:21;;;;;;;7.27;6.50;;;8.80;99.90;;;;;;5045904;28;20203;-40
2022/06/02 02:16:54;;;;;;;7.37;6.73;;;8.70;99.90;;;;;;5055719;28;20201;-43
2022/06/02 02:19:35;;;;;;;9.83;7.60;;;8.70;99.90;;;;;;5042430;28;20227;-41
2022/06/02 02:22:08;;;;;;;7.47;6.70;;;8.60;99.90;;;;;;5045577;28;20610;-43
2022/06/02 02:24:45;;;;;;;7.80;7.10;;;8.60;99.90;;;;;;5041144;28;20214;-41
2022/06/02 02:27:19;;;;;;;8.40;7.30;;;8.60;99.90;;;;;;5044333;28;20526;-40
2022/06/02 02:29:55;;;;;;;7.57;6.80;;;8.60;99.90;;;;;;5049595;28;20244;-43
2022/06/02 02:32:31;;;;;;;9.57;7.43;;;8.60;99.90;;;;;;5049504;28;20213;-44
2022/06/02 02:35:07;;;;;;;7.30;6.60;;;8.50;99.90;;;;;;5045182;28;20664;-42
2022/06/02 02:37:40;;;;;;;8.53;7.63;;;8.60;99.90;;;;;;5041840;28;20281;-42
2022/06/02 02:40:11;;;;;;;8.80;7.63;;;8.50;99.90;;;;;;5045564;28;20222;-42
2022/06/02 02:42:43;;;;;;;8.70;7.23;;;8.60;99.90;;;;;;5042669;28;20282;-43
2022/06/02 02:45:29;;;;;;;8.23;7.40;;;8.60;99.90;;;;;;5039745;28;20217;-42
2022/06/02 02:48:06;;;;;;;9.37;8.47;;;8.50;99.90;;;;;;5051891;28;20194;-43
2022/06/02 02:50:42;;;;;;;9.00;7.30;;;8.50;99.90;;;;;;5041527;28;20576;-41
2022/06/02 02:53:15;;;;;;;7.43;6.73;;;8.50;99.90;;;;;;5044633;28;20306;-42
2022/06/02 02:55:48;;;;;;;8.30;7.50;;;8.50;99.90;;;;;;5043196;28;20281;-43
2022/06/02 02:58:21;;;;;;;9.13;8.00;;;8.50;99.90;;;;;;5051022;28;20718;-41
2022/06/02 03:00:59;;;;;;;10.60;7.63;;;8.50;99.90;;;;;;5040396;28;20210;-43
2022/06/02 03:03:32;;;;;;;9.00;7.97;;;8.50;99.90;;;;;;5052953;28;20215;-42
2022/06/02 03:06:18;;;;;;;7.80;7.03;;;8.50;99.90;;;;;;5045083;28;20286;-41
2022/06/02 03:08:51;;;;;;;8.53;7.70;;;8.50;99.90;;;;;;5043877;28;20353;-40
2022/06/02 03:11:30;;;;;;;7.73;6.93;;;8.50;99.90;;;;;;5042631;28;20231;-43
2022/06/02 03:14:04;;;;;;;10.57;7.27;;;8.40;99.90;;;;;;5044598;28;20195;-44
2022/06/02 03:16:33;;;;;;;7.80;6.87;;;8.40;99.90;;;;;;5032998;28;20272;-40
2022/06/02 03:19:16;;;;;;;11.73;8.20;;;8.40;99.90;;;;;;5051415;28;20276;-40
2022/06/02 03:21:54;;;;;;;11.10;8.47;;;8.50;99.90;;;;;;5042484;28;20207;-43
2022/06/02 03:24:37;;;;;;;9.87;8.13;;;8.50;99.90;;;;;;5041231;28;20826;-42
2022/06/02 03:27:15;;;;;;;12.13;8.90;;;8.40;99.90;;;;;;5044828;28;20679;-41
2022/06/02 03:29:56;;;;;;;12.03;8.20;;;8.50;99.90;;;;;;5057804;28;20206;-41
2022/06/02 03:32:37;;;;;;;14.63;9.97;;;8.50;99.90;;;;;;5040752;28;20810;-43
2022/06/02 03:35:12;;;;;;;12.30;7.90;;;8.50;99.90;;;;;;5054790;28;20610;-42
2022/06/02 03:37:55;;;;;;;10.10;8.23;;;8.50;99.90;;;;;;5041494;28;20198;-41
2022/06/02 03:40:31;;;;;;;13.77;8.20;;;8.50;99.90;;;;;;5054632;28;20233;-41
2022/06/02 03:43:08;;;;;;;11.23;7.93;;;8.50;99.90;;;;;;5063386;28;20211;-41
2022/06/02 03:46:00;;;;;;;9.63;8.43;;;8.60;99.90;;;;;;5059896;28;20202;-41
2022/06/02 03:48:41;;;;;;;10.03;9.03;;;8.60;99.90;;;;;;5040664;28;20227;-41
2022/06/02 03:51:22;;;;;;;10.00;8.90;;;8.60;99.90;;;;;;5051455;28;20253;-44
2022/06/02 03:54:13;;;;;;;11.20;8.63;;;8.60;99.90;;;;;;5043230;28;20191;-41
2022/06/02 03:56:57;;;;;;;14.30;9.17;;;8.60;99.90;;;;;;5061187;28;20190;-42
2022/06/02 03:59:43;;;;;;;14.00;9.67;;;8.60;99.90;;;;;;5052921;28;20223;-42
2022/06/02 04:02:14;;;;;;;11.83;9.30;;;8.70;99.90;;;;;;5046786;28;20204;-41
2022/06/02 04:04:52;;;;;;;14.57;10.47;;;8.70;99.90;;;;;;5039907;28;20217;-41
2022/06/02 04:07:35;;;;;;;12.57;9.50;;;8.80;99.90;;;;;;5040703;28;20218;-42
2022/06/02 04:10:18;;;;;;;16.20;10.00;;;8.80;99.90;;;;;;5042374;28;20344;-42
2022/06/02 04:15:58;;;;;;;13.90;9.93;;;8.90;99.90;;;;;;5051124;28;20194;-43
2022/06/02 04:18:38;;;;;;;13.20;9.60;;;9.00;99.90;;;;;;5050461;28;20218;-42
2022/06/02 04:21:17;;;;;;;14.13;10.87;;;9.10;99.90;;;;;;5033304;28;20206;-41
2022/06/02 04:23:59;;;;;;;17.90;11.07;;;9.10;99.90;;;;;;5043243;28;20234;-40
2022/06/02 04:26:45;;;;;;;14.53;10.27;;;9.20;99.90;;;;;;5056804;28;20245;-40
2022/06/02 04:29:23;;;;;;;15.37;10.90;;;9.20;99.90;;;;;;5046636;28;20215;-41
2022/06/02 04:32:02;;;;;;;15.60;12.13;;;9.30;99.90;;;;;;5047161;28;20206;-41
2022/06/02 04:34:40;;;;;;;17.87;12.13;;;9.30;99.90;;;;;;5041065;28;20202;-41
2022/06/02 04:37:16;;;;;;;19.03;11.93;;;9.40;99.90;;;;;;5040717;28;20202;-40
2022/06/02 04:39:51;;;;;;;18.67;12.67;;;9.40;99.90;;;;;;5056196;28;20297;-42
2022/06/02 04:42:27;;;;;;;14.67;11.20;;;9.40;99.90;;;;;;5058150;28;20862;-41
2022/06/02 04:45:04;;;;;;;13.20;11.17;;;9.50;99.90;;;;;;5045118;28;20242;-43
2022/06/02 04:47:40;;;;;;;13.63;11.57;;;9.60;99.90;;;;;;5054568;28;20676;-41
2022/06/02 04:50:17;;;;;;;15.83;11.93;;;9.60;99.90;;;;;;5040336;28;20224;-42
2022/06/02 04:52:50;;;;;;;15.50;11.07;;;9.60;99.90;;;;;;5051961;28;20195;-42
2022/06/02 04:55:23;;;;;;;14.20;11.20;;;9.60;99.90;;;;;;5048386;28;20221;-43
2022/06/02 04:57:57;;;;;;;12.97;11.53;;;9.60;99.90;;;;;;5057466;28;20222;-42
2022/06/02 05:00:34;;;;;;;18.67;12.37;;;9.60;99.90;;;;;;5055917;28;20826;-45
2022/06/02 05:03:08;;;;;;;19.63;11.63;;;9.60;99.90;;;;;;5052092;28;20199;-41
2022/06/02 05:05:41;;;;;;;12.97;11.53;;;9.70;99.90;;;;;;5043512;28;20210;-42
2022/06/02 05:08:38;;;;;;;16.53;11.37;;;9.70;99.90;;;;;;5045454;28;20199;-42
2022/06/02 05:11:15;;;;;;;14.30;12.03;;;9.80;99.90;;;;;;5057264;28;20214;-42
2022/06/02 05:13:54;;;;;;;13.87;11.13;;;9.80;99.90;;;;;;5053947;28;20695;-44
2022/06/02 05:16:32;;;;;;;13.30;10.80;;;9.90;99.90;;;;;;5052967;28;20217;-42
2022/06/02 05:19:48;;;;;;;11.73;10.37;;;9.90;99.90;;;;;;5049167;28;20223;-41
2022/06/02 05:22:35;;;;;;;13.77;10.70;;;9.90;99.90;;;;;;5042665;28;20211;-45
2022/06/02 05:25:25;;;;;;;12.80;9.80;;;10.00;99.90;;;;;;5044361;28;20219;-41
2022/06/02 05:28:08;;;;;;;12.27;9.40;;;10.10;99.90;;;;;;5049559;28;20213;-43
2022/06/02 05:30:59;;;;;;;15.33;9.37;;;10.10;99.90;;;;;;5051330;28;20195;-42
2022/06/02 05:33:44;;;;;;;12.57;10.33;;;10.10;99.90;;;;;;5051758;28;20215;-40
2022/06/02 05:36:26;;;;;;;13.00;9.20;;;10.20;99.90;;;;;;5051059;28;20198;-43
2022/06/02 05:39:05;;;;;;;13.93;9.27;;;10.20;99.90;;;;;;5039457;28;20215;-41
2022/06/02 05:41:46;;;;;;;11.20;9.43;;;10.20;99.90;;;;;;5057681;28;20206;-41
2022/06/02 05:44:36;;;;;;;10.10;9.00;;;10.30;99.90;;;;;;5051205;28;20215;-42
2022/06/02 05:47:21;;;;;;;9.03;8.13;;;10.20;99.90;;;;;;5050538;28;20905;-42
2022/06/02 05:49:58;;;;;;;12.40;9.43;;;10.20;99.90;;;;;;5039121;28;20256;-42
2022/06/02 05:52:34;;;;;;;12.67;9.17;;;10.20;99.90;;;;;;5043738;28;20688;-43
2022/06/02 05:55:20;;;;;;;9.40;8.50;;;10.30;99.90;;;;;;5049837;28;20210;-42
2022/06/02 05:57:53;;;;;;;11.00;9.30;;;10.30;99.90;;;;;;5045808;28;20193;-43
2022/06/02 06:00:28;;;;;;;11.37;8.13;;;10.30;99.90;;;;;;5054612;28;20203;-40
2022/06/02 06:03:32;;;;;;;10.63;8.07;;;10.40;99.90;;;;;;5042075;28;20201;-44
2022/06/02 06:06:08;;;;;;;9.57;8.33;;;10.40;99.90;;;;;;5021797;28;20238;-46
2022/06/02 06:08:49;;;;;;;15.13;9.40;;;10.50;99.90;;;;;;5034139;28;20218;-43
2022/06/02 06:11:32;;;;;;;12.97;8.83;;;10.60;99.90;;;;;;5039517;28;21926;-43
2022/06/02 06:14:15;;;;;;;12.17;8.10;;;10.70;99.90;;;;;;5049613;28;20213;-41
2022/06/02 06:16:49;;;;;;;10.00;7.90;;;10.70;99.90;;;;;;5054615;28;20244;-41
2022/06/02 06:19:49;;;;;;;11.27;7.43;;;10.80;99.90;;;;;;5056333;28;20301;-41
2022/06/02 06:22:56;;;;;;;7.50;6.50;;;10.80;99.90;;;;;;5051967;28;20907;-44
2022/06/02 06:25:40;;;;;;;12.77;6.97;;;11.00;99.90;;;;;;5003405;28;20229;-41
2022/06/02 06:28:13;;;;;;;11.20;6.93;;;11.20;99.90;;;;;;5049279;28;20202;-42
2022/06/02 06:31:01;;;;;;;9.37;6.33;;;11.30;99.90;;;;;;5051892;28;20207;-41
2022/06/02 06:33:45;;;;;;;8.20;6.10;;;11.30;99.90;;;;;;5052934;28;20314;-41
2022/06/02 06:36:38;;;;;;;9.07;5.73;;;11.40;99.90;;;;;;5045600;28;20211;-41
2022/06/02 06:39:17;;;;;;;5.80;5.23;;;11.50;99.90;;;;;;5033175;28;20238;-44
2022/06/02 06:41:58;;;;;;;8.27;5.50;;;11.50;99.90;;;;;;5050994;28;20195;-42
2022/06/02 06:44:31;;;;;;;6.60;4.93;;;11.50;99.90;;;;;;5049851;28;20211;-42
2022/06/02 06:47:07;;;;;;;6.27;4.77;;;11.50;99.90;;;;;;5042091;28;20211;-41
2022/06/02 06:49:51;;;;;;;4.87;4.27;;;11.60;99.90;;;;;;5054020;28;20550;-43
2022/06/02 06:52:51;;;;;;;7.17;4.43;;;11.60;99.90;;;;;;5049571;28;20253;-45
2022/06/02 06:55:39;;;;;;;5.53;4.80;;;11.60;99.90;;;;;;5033084;28;20269;-44
2022/06/02 06:58:17;;;;;;;7.93;4.70;;;11.60;99.90;;;;;;5050469;28;20609;-42
2022/06/02 07:00:50;;;;;;;4.83;3.83;;;11.70;99.90;;;;;;5052382;28;20278;-43
2022/06/02 07:03:24;;;;;;;4.40;4.00;;;11.70;99.90;;;;;;5043375;28;20199;-44
2022/06/02 07:05:54;;;;;;;6.27;3.50;;;11.80;99.90;;;;;;5044257;28;20700;-40
2022/06/02 07:08:30;;;;;;;4.33;4.00;;;11.80;99.90;;;;;;5055381;28;20214;-44
2022/06/02 07:11:07;;;;;;;7.17;4.00;;;11.80;99.90;;;;;;5055366;28;20271;-42
2022/06/02 07:13:42;;;;;;;5.93;3.93;;;11.80;99.90;;;;;;5046633;28;20640;-41
2022/06/02 07:16:17;;;;;;;8.03;3.90;;;11.80;99.90;;;;;;5041062;28;20278;-39
2022/06/02 07:18:51;;;;;;;4.27;3.50;;;11.80;99.90;;;;;;5043303;28;20310;-40
2022/06/02 07:21:29;;;;;;;15.83;5.50;;;11.70;99.90;;;;;;5052676;28;20199;-41
2022/06/02 07:24:06;;;;;;;4.20;3.77;;;11.70;99.90;;;;;;5042254;28;20198;-44
2022/06/02 07:26:47;;;;;;;4.00;3.43;;;11.60;99.90;;;;;;5035132;28;20568;-40
2022/06/02 07:29:26;;;;;;;4.10;3.73;;;11.60;99.90;;;;;;5048286;28;20421;-40
2022/06/02 07:32:16;;;;;;;6.30;3.53;;;11.60;99.90;;;;;;5051004;28;20203;-42
2022/06/02 07:35:02;;;;;;;11.67;4.90;;;11.50;99.90;;;;;;5044311;28;20195;-41
2022/06/02 07:37:35;;;;;;;6.07;4.70;;;11.50;99.90;;;;;;5054243;28;20346;-42
2022/06/02 07:40:22;;;;;;;5.00;4.50;;;11.50;99.90;;;;;;5042743;28;20223;-40
2022/06/02 07:43:21;;;;;;;6.13;4.60;;;11.50;99.90;;;;;;5038727;28;20694;-43
2022/06/02 07:45:58;;;;;;;13.30;5.57;;;11.40;99.90;;;;;;5043206;28;20225;-42
2022/06/02 07:48:57;;;;;;;9.10;5.40;;;11.30;99.90;;;;;;5044831;28;20207;-40
2022/06/02 07:51:31;;;;;;;10.97;5.37;;;11.40;99.90;;;;;;5041876;28;20245;-41
2022/06/02 07:54:11;;;;;;;10.57;5.77;;;11.40;99.90;;;;;;5045217;28;20606;-43
2022/06/02 07:56:48;;;;;;;8.87;5.60;;;11.40;99.90;;;;;;5048336;28;20588;-42
2022/06/02 07:59:26;;;;;;;8.70;5.27;;;11.40;99.90;;;;;;5035015;28;20222;-45
2022/06/02 08:02:14;;;;;;;5.40;4.80;;;11.40;99.90;;;;;;5049861;28;20221;-42
2022/06/02 08:04:50;;;;;;;5.70;4.83;;;11.30;99.90;;;;;;5039516;28;20564;-41
2022/06/02 08:07:25;;;;;;;10.83;5.00;;;11.30;99.90;;;;;;5040614;28;20198;-41
2022/06/02 08:10:08;;;;;;;5.23;4.80;;;11.30;99.90;;;;;;5054901;28;20230;-41
2022/06/02 08:12:43;;;;;;;6.63;5.10;;;11.30;99.90;;;;;;5043472;28;20281;-41
2022/06/02 08:15:26;;;;;;;6.10;4.90;;;11.30;99.90;;;;;;5035239;28;20209;-41
2022/06/02 08:17:58;;;;;;;6.23;4.60;;;11.30;99.90;;;;;;5051384;28;20193;-43
2022/06/02 08:20:47;;;;;;;6.50;5.57;;;11.30;99.90;;;;;;5048513;28;20289;-43
2022/06/02 08:23:36;;;;;;;5.40;5.00;;;11.40;99.90;;;;;;5043696;28;20283;-45
2022/06/02 08:26:11;;;;;;;7.10;5.33;;;11.40;99.90;;;;;;5059475;28;20331;-42
2022/06/02 08:28:59;;;;;;;6.77;5.67;;;11.40;99.90;;;;;;5038169;28;20228;-43
2022/06/02 08:31:44;;;;;;;9.17;5.90;;;11.50;99.90;;;;;;5043938;28;20517;-42
2022/06/02 08:34:14;;;;;;;6.80;5.90;;;11.50;99.90;;;;;;5044507;28;20199;-45
2022/06/02 08:36:54;;;;;;;11.20;7.20;;;11.60;99.90;;;;;;5044861;28;20195;-42
2022/06/02 08:39:47;;;;;;;12.03;5.83;;;11.70;99.90;;;;;;5047131;28;20207;-49
2022/06/02 08:42:33;;;;;;;7.53;5.47;;;11.80;99.90;;;;;;5044244;28;20187;-43
2022/06/02 08:45:37;;;;;;;8.87;4.70;;;12.00;99.90;;;;;;5038500;28;20217;-41
2022/06/02 08:48:27;;;;;;;4.97;4.40;;;12.20;99.90;;;;;;5030548;28;20215;-42
2022/06/02 08:51:23;;;;;;;7.33;4.37;;;12.40;99.90;;;;;;5045373;28;20211;-42
2022/06/02 08:54:18;;;;;;;6.00;4.43;;;12.70;99.90;;;;;;5057620;28;20255;-43
2022/06/02 08:57:14;;;;;;;5.93;4.33;;;12.80;99.90;;;;;;5057428;28;20199;-41
2022/06/02 08:59:55;;;;;;;5.07;4.20;;;;;;;;;;5032764;28;20230;-44
2022/06/02 09:02:58;;;;;;;6.27;4.20;;;13.30;99.90;;;;;;5038633;28;20211;-43
2022/06/02 09:05:47;;;;;;;7.07;3.67;;;13.30;99.90;;;;;;5040584;28;20367;-42
2022/06/02 09:08:34;;;;;;;3.60;3.27;;;13.30;99.90;;;;;;5038609;28;20215;-42
2022/06/02 09:11:18;;;;;;;5.13;3.37;;;13.30;99.90;;;;;;5046407;28;20190;-40
2022/06/02 09:14:36;;;;;;;3.47;2.70;;;13.30;99.90;;;;;;5057677;28;20203;-42
2022/06/02 09:17:23;;;;;;;10.83;2.77;;;13.20;99.90;;;;;;5034406;28;20615;-41
2022/06/02 09:20:12;;;;;;;4.73;2.53;;;13.10;99.90;;;;;;5042923;28;20306;-41
2022/06/02 09:23:09;;;;;;;4.20;2.70;;;13.00;99.90;;;;;;5053681;28;20203;-41
2022/06/02 09:25:49;;;;;;;5.57;2.00;;;12.90;99.90;;;;;;5062136;28;20218;-43
2022/06/02 09:28:33;;;;;;;5.83;2.30;;;12.80;99.90;;;;;;5062276;28;20529;-42
2022/06/02 09:31:16;;;;;;;3.93;2.53;;;12.80;99.90;;;;;;5049778;28;20626;-43
2022/06/02 09:34:00;;;;;;;3.47;2.50;;;12.80;99.90;;;;;;5048136;28;20555;-43
2022/06/02 09:36:50;;;;;;;4.33;2.00;;;12.80;99.90;;;;;;5047441;28;20203;-41
2022/06/02 09:39:41;;;;;;;3.23;1.73;;;12.80;99.90;;;;;;5046825;28;20222;-43
2022/06/02 09:42:25;;;;;;;3.90;2.10;;;12.80;99.90;;;;;;5060834;28;20725;-42
2022/06/02 09:45:05;;;;;;;5.33;2.13;;;12.80;99.90;;;;;;5049611;28;20199;-44
2022/06/02 09:48:03;;;;;;;4.53;2.23;;;12.90;99.90;;;;;;5037876;28;20212;-46
2022/06/02 09:50:46;;;;;;;3.20;2.63;;;12.90;99.90;;;;;;5054417;28;20226;-41
2022/06/02 09:53:27;;;;;;;2.83;1.93;;;12.90;99.90;;;;;;5049801;28;20206;-43
2022/06/02 09:56:19;;;;;;;3.67;2.50;;;13.00;99.90;;;;;;5060662;28;20191;-42
2022/06/02 09:59:10;;;;;;;5.87;2.47;;;13.10;99.90;;;;;;5054843;28;20264;-42
2022/06/02 10:01:47;;;;;;;9.37;2.07;;;13.20;99.90;;;;;;5047287;28;20203;-41
2022/06/02 10:04:48;;;;;;;4.93;2.27;;;13.20;99.90;;;;;;5036099;28;20334;-42
2022/06/02 10:07:35;;;;;;;4.73;2.23;;;13.20;99.90;;;;;;5039631;28;20225;-42
2022/06/02 10:10:40;;;;;;;6.30;2.17;;;13.20;99.90;;;;;;5050137;28;20214;-42
2022/06/02 10:13:45;;;;;;;3.53;1.80;;;13.20;99.90;;;;;;5043515;28;20222;-42
2022/06/02 10:16:39;;;;;;;4.63;1.70;;;13.20;99.90;;;;;;5040144;28;20293;-45
2022/06/02 10:19:28;;;;;;;4.23;2.10;;;13.20;99.90;;;;;;5038315;28;20214;-41
2022/06/02 10:22:06;;;;;;;4.70;2.57;;;13.40;99.90;;;;;;5052302;28;20187;-44
2022/06/02 10:25:11;;;;;;;4.00;2.00;;;13.50;99.90;;;;;;5042974;28;20218;-42
2022/06/02 10:28:15;;;;;;;2.00;1.70;;;13.70;99.90;;;;;;5058413;28;20203;-49
2022/06/02 10:31:21;;;;;;;4.40;2.30;;;13.80;99.90;;;;;;5053946;28;20191;-44
2022/06/02 10:34:29;;;;;;;3.80;2.10;;;14.00;99.90;;;;;;5045167;28;20672;-41
2022/06/02 10:37:12;;;;;;;4.30;1.80;;;14.00;99.90;;;;;;5046165;28;20199;-42
2022/06/02 10:40:02;;;;;;;3.93;2.10;;;14.00;99.90;;;;;;5045685;28;20261;-42
2022/06/02 10:42:50;;;;;;;2.40;1.90;;;14.00;99.90;;;;;;5049223;28;20206;-41
2022/06/02 10:45:37;;;;;;;4.23;2.10;;;14.00;99.90;;;;;;5048005;28;20200;-42
2022/06/02 10:48:31;;;;;;;3.27;2.17;;;14.00;99.90;;;;;;5045406;28;20196;-43
2022/06/02 10:51:22;;;;;;;6.47;1.80;;;14.20;99.90;;;;;;5036181;28;20280;-43
2022/06/02 10:54:22;;;;;;;2.93;1.80;;;14.30;99.90;;;;;;5045096;28;20257;-41
2022/06/02 10:57:13;;;;;;;3.33;1.83;;;14.30;99.90;;;;;;5052320;28;20303;-46
2022/06/02 11:00:07;;;;;;;6.63;1.60;;;14.40;99.90;;;;;;5055596;28;20211;-40
2022/06/02 11:03:10;;;;;;;6.53;1.50;;;14.50;99.90;;;;;;5054098;28;20203;-41
2022/06/02 11:06:22;;;;;;;3.43;1.83;;;14.40;99.90;;;;;;5050840;28;20218;-41
2022/06/02 11:09:30;;;;;;;5.87;1.97;;;14.40;99.90;;;;;;5023146;28;20263;-42
2022/06/02 11:12:26;;;;;;;6.57;1.53;;;14.40;99.90;;;;;;5056624;28;20874;-44
2022/06/02 11:15:16;;;;;;;3.93;1.50;;;14.60;99.90;;;;;;5043785;28;20195;-44
2022/06/02 11:18:18;;;;;;;2.87;1.73;;;14.70;99.90;;;;;;5062413;28;20251;-42
2022/06/02 11:21:17;;;;;;;6.03;1.63;;;14.70;99.90;;;;;;5050163;28;20194;-46
2022/06/02 11:24:05;;;;;;;3.07;1.50;;;14.70;99.90;;;;;;5027847;28;20202;-44
2022/06/02 11:27:10;;;;;;;2.37;1.47;;;14.60;99.90;;;;;;5046909;28;20254;-42
2022/06/02 11:30:07;;;;;;;8.13;1.70;;;14.60;99.90;;;;;;5050110;28;20219;-41
2022/06/02 11:33:00;;;;;;;2.80;1.70;;;14.70;99.90;;;;;;5047866;28;20210;-43
2022/06/02 11:35:57;;;;;;;3.37;1.80;;;14.70;99.90;;;;;;5042681;28;20278;-44
2022/06/02 11:38:58;;;;;;;3.53;1.50;;;14.80;99.90;;;;;;5039301;28;20223;-44
2022/06/02 11:41:37;;;;;;;6.97;1.57;;;14.90;99.90;;;;;;5044614;28;20203;-42
2022/06/02 11:44:08;;;;;;;2.40;1.63;;;14.90;99.90;;;;;;5047621;28;20218;-42
2022/06/02 11:47:01;;;;;;;6.30;1.70;;;15.00;99.90;;;;;;5055163;28;20226;-42
2022/06/02 11:50:00;;;;;;;1.77;1.30;;;15.10;99.90;;;;;;5050151;28;20207;-45
2022/06/02 11:53:05;;;;;;;4.13;1.33;;;15.30;99.90;;;;;;5042996;28;20676;-43
2022/06/02 11:55:37;;;;;;;4.10;1.60;;;15.30;99.90;;;;;;5053432;28;20210;-44
2022/06/02 11:58:24;;;;;;;3.10;1.57;;;15.40;99.90;;;;;;5047939;28;20207;-42
2022/06/02 12:01:13;;;;;;;4.37;1.77;;;15.50;99.90;;;;;;5052222;28;20207;-42
2022/06/02 12:04:02;;;;;;;2.33;1.50;;;15.60;99.90;;;;;;5048456;28;20241;-45
2022/06/02 12:07:05;;;;;;;3.73;1.40;;;15.40;99.90;;;;;;5055884;28;20227;-43
2022/06/02 12:10:08;;;;;;;5.77;1.50;;;15.20;99.90;;;;;;5044442;28;20233;-45
2022/06/02 12:12:59;;;;;;;4.43;1.50;;;15.20;99.90;;;;;;5048640;28;20195;-42
2022/06/02 12:16:02;;;;;;;2.47;1.40;;;15.10;99.90;;;;;;5053896;28;20195;-42
2022/06/02 12:18:37;;;;;;;3.27;1.40;;;15.20;99.90;;;;;;5041667;28;20225;-42
2022/06/02 12:21:31;;;;;;;6.40;1.80;;;15.40;99.90;;;;;;5040487;28;20615;-42
2022/06/02 12:24:17;;;;;;;2.13;1.33;;;15.40;99.90;;;;;;5035586;28;20211;-41
2022/06/02 12:27:14;;;;;;;3.50;1.20;;;15.40;99.90;;;;;;5049028;28;20226;-42
2022/06/02 12:29:59;;;;;;;4.43;1.67;;;15.40;99.90;;;;;;5048783;28;20230;-42
2022/06/02 12:32:40;;;;;;;1.93;1.27;;;15.30;99.90;;;;;;5060570;28;20214;-41
2022/06/02 12:35:50;;;;;;;1.67;1.43;;;15.20;99.90;;;;;;5047026;28;20199;-42
2022/06/02 12:38:59;;;;;;;2.07;1.60;;;15.20;99.90;;;;;;5043891;28;20354;-45
2022/06/02 12:41:38;;;;;;;3.87;1.50;;;15.40;99.90;;;;;;5048876;28;20207;-44
2022/06/02 12:44:39;;;;;;;4.07;1.53;;;15.70;99.90;;;;;;5041255;28;20265;-42
2022/06/02 12:47:47;;;;;;;3.13;1.57;;;15.80;99.90;;;;;;5054556;28;20214;-42
2022/06/02 12:50:35;;;;;;;2.80;1.37;;;16.10;99.90;;;;;;5050884;28;20877;-43
2022/06/02 12:53:49;;;;;;;3.83;1.70;;;16.10;99.90;;;;;;5041088;28;20207;-42
2022/06/02 12:56:31;;;;;;;4.73;1.83;;;16.10;99.90;;;;;;4973747;28;20216;-43
2022/06/02 12:59:45;;;;;;;6.50;1.60;;;16.30;99.90;;;;;;4988554;28;20220;-45
2022/06/02 13:02:20;;;;;;;3.17;1.50;;;16.50;99.90;;;;;;5044231;28;20195;-42
2022/06/02 13:05:28;;;;;;;2.07;1.50;;;16.80;99.90;;;;;;5046937;28;20202;-45
2022/06/02 13:08:32;;;;;;;2.60;1.30;;;16.70;99.90;;;;;;5056772;28;20966;-42
2022/06/02 13:11:13;;;;;;;3.60;1.40;;;16.40;99.90;;;;;;5046963;28;20201;-46
2022/06/02 13:14:24;;;;;;;4.17;1.40;;;16.50;99.90;;;;;;5044370;28;20326;-43
2022/06/02 13:17:14;;;;;;;4.33;1.63;;;16.90;99.90;;;;;;5057366;28;20667;-43
2022/06/02 13:19:54;;;;;;;2.97;1.33;;;17.40;99.90;;;;;;5041948;28;20824;-42
2022/06/02 13:23:04;;;;;;;2.93;1.50;;;17.80;99.90;;;;;;5048291;28;20202;-43
2022/06/02 13:25:51;;;;;;;6.27;1.20;;;17.40;99.90;;;;;;5055107;28;20205;-44
2022/06/02 13:28:56;;;;;;;5.87;1.60;;;17.30;99.90;;;;;;5041461;28;20226;-43
2022/06/02 13:31:49;;;;;;;3.80;1.47;;;17.80;99.90;;;;;;5048882;28;20287;-42
2022/06/02 13:35:08;;;;;;;2.63;1.10;;;17.90;99.90;;;;;;5045705;28;20211;-43
2022/06/02 13:37:57;;;;;;;1.80;1.10;;;17.80;99.90;;;;;;5047089;28;20894;-46
2022/06/02 13:40:35;;;;;;;5.20;1.23;;;17.40;99.90;;;;;;5047748;28;20195;-41
2022/06/02 13:43:35;;;;;;;5.80;1.50;;;17.70;99.90;;;;;;5051758;28;20213;-42
2022/06/02 13:46:37;;;;;;;6.37;1.53;;;18.40;99.90;;;;;;5051377;28;20211;-42
2022/06/02 13:49:48;;;;;;;5.70;1.30;;;18.70;99.90;;;;;;5019393;28;20284;-41
2022/06/02 13:52:57;;;;;;;4.70;1.67;;;18.60;99.90;;;;;;5014616;28;20222;-44
2022/06/02 13:59:09;;;;;;;3.87;1.50;;;18.90;99.90;;;;;;5042461;28;20211;-43
2022/06/02 14:01:52;;;;;;;2.17;1.40;;;19.00;99.90;;;;;;5042570;28;20375;-43
2022/06/02 14:04:56;;;;;;;5.67;1.57;;;19.50;99.90;;;;;;5043481;28;20567;-44
2022/06/02 14:07:44;;;;;;;3.13;1.47;;;19.90;99.90;;;;;;5055059;28;20258;-43
2022/06/02 14:10:33;;;;;;;3.83;1.57;;;20.00;99.10;;;;;;5043950;28;20240;-43
2022/06/02 14:13:20;;;;;;;1.87;1.10;;;19.80;98.90;;;;;;5044839;28;20202;-42
2022/06/02 14:16:00;;;;;;;5.90;1.40;;;19.80;99.00;;;;;;5054491;28;20275;-43
2022/06/02 14:18:52;;;;;;;3.87;1.10;;;19.30;99.10;;;;;;5043400;28;20245;-43
2022/06/02 14:21:28;;;;;;;3.73;1.30;;;19.60;97.80;;;;;;5052708;28;20195;-42
2022/06/02 14:24:10;;;;;;;5.80;1.33;;;19.70;99.80;;;;;;5052000;28;20578;-42
2022/06/02 14:26:52;;;;;;;3.67;1.10;;;20.20;98.10;;;;;;5047239;28;20214;-43
2022/06/02 14:29:31;;;;;;;1.13;0.97;;;20.00;98.20;;;;;;5044225;28;20237;-42